Sydnee Taylor — WDD4807 — position and weather

sailwx.info

Track history (hours):
 
Tides and Currents Weather Stations Pressure Air Temp Water Temp Dewpoint Dewpoint Depression Visibility Wind Speed Wind Dir Waves Ship Positions

Sydnee Taylor

Owner: Florida Marine, LLC, Mandeville, LA. More information available from US FCC via Universal Licensing System and Coast Guard Vessel Documentation Center.

Last reported at 2018-Feb-20 15:08 UTC. Time now 2018-Feb-23 14:34 UTC.
Position N 29°33' W 090°26'.

Length 27 m; draft 2.6 m.

Type: Towing. MMSI: 367149340.

Date/timePositionNaut miles runAvg speedWind from/ knotsBaromVisibWave heightAir tempDewpointWater temp
2018-Feb-20 15:08N 29°33' W 090°26'2 4.7
2018-Feb-20 14:45N 29°33' W 090°28'1 4.8
2018-Feb-20 14:29N 29°34' W 090°30'2 4.6
2018-Feb-20 14:00N 29°34' W 090°32'2 4.3
2018-Feb-20 13:30N 29°34' W 090°35'2 3.9
2018-Feb-20 13:01N 29°35' W 090°37'2 4.5
2018-Feb-20 12:30N 29°36' W 090°39'2 4.0
2018-Feb-20 12:00N 29°36' W 090°41'1 2.5
2018-Feb-20 11:30N 29°36' W 090°43'2 4.0
2018-Feb-20 11:01N 29°34' W 090°43'2 4.2
2018-Feb-20 10:30N 29°33' W 090°45'0 0.3
2018-Feb-20 10:01N 29°33' W 090°45'0 0.0
2018-Feb-20 09:29N 29°33' W 090°45'0 0.0
2018-Feb-20 09:00N 29°33' W 090°45'0 0.3
2018-Feb-20 08:31N 29°33' W 090°45'2 3.8
2018-Feb-20 08:00N 29°32' W 090°47'3 5.8
2018-Feb-20 07:30N 29°32' W 090°51'3 5.5
2018-Feb-20 07:00N 29°33' W 090°54'3 5.2
2018-Feb-20 06:29N 29°34' W 090°57'3 0.1
2018-Feb-18 23:35N 29°37' W 090°59'1 6.0
2018-Feb-18 23:21N 29°36' W 090°58'2 5.9
2018-Feb-18 22:59N 29°34' W 090°56'3 6.2
2018-Feb-18 22:30N 29°33' W 090°53'3 5.9
2018-Feb-18 22:00N 29°32' W 090°50'3 5.8
2018-Feb-18 21:31N 29°32' W 090°47'2 4.8
2018-Feb-18 21:01N 29°34' W 090°45'2 4.0
2018-Feb-18 20:31N 29°35' W 090°43'2 4.0
2018-Feb-18 20:00N 29°37' W 090°42'1 2.5
2018-Feb-18 19:31N 29°36' W 090°40'3 5.2
2018-Feb-18 19:01N 29°35' W 090°38'3 5.6
2018-Feb-18 18:31N 29°34' W 090°35'3 5.8
2018-Feb-18 18:00N 29°34' W 090°31'  
2018-Feb-12 09:31N 29°33' W 090°25'0 5.4
2018-Feb-12 09:30N 29°33' W 090°25'3 5.1
2018-Feb-12 08:59N 29°33' W 090°28'2 5.1
2018-Feb-12 08:30N 29°34' W 090°31'2 4.9
2018-Feb-12 08:00N 29°34' W 090°33'2 4.0
2018-Feb-12 07:30N 29°35' W 090°36'2 4.5
2018-Feb-12 07:01N 29°35' W 090°38'2 4.8
2018-Feb-12 06:31N 29°36' W 090°41'2 3.5
2018-Feb-12 06:00N 29°36' W 090°43'2 4.3
2018-Feb-12 05:30N 29°34' W 090°43'2 4.7
2018-Feb-12 05:00N 29°33' W 090°45'2 4.9
2018-Feb-12 04:30N 29°32' W 090°48'3 5.7
2018-Feb-12 04:00N 29°32' W 090°51'3 5.6
2018-Feb-12 03:29N 29°33' W 090°54'3 5.3
2018-Feb-12 03:00N 29°34' W 090°57'56 2.1
2018-Feb-11 01:05N 29°50' W 091°58'0 4.9
2018-Feb-11 01:00N 29°50' W 091°59'3 5.1
2018-Feb-11 00:30N 29°49' W 092°01'3 5.2
2018-Feb-10 23:55N 29°48' W 092°05'2 5.4
2018-Feb-10 23:30N 29°47' W 092°07'2 4.9
2018-Feb-10 23:00N 29°47' W 092°10'2 4.4
2018-Feb-10 22:30N 29°47' W 092°12'0 0.7
2018-Feb-10 22:00N 29°47' W 092°13'2 3.3
2018-Feb-10 21:30N 29°48' W 092°14'2 4.6
2018-Feb-10 20:59N 29°49' W 092°17'2 4.4
2018-Feb-10 20:30N 29°50' W 092°19'2 4.6
2018-Feb-10 20:00N 29°51' W 092°21'  
Track history (hours):
 
Tides and Currents Weather Stations Pressure Air Temp Water Temp Dewpoint Dewpoint Depression Visibility Wind Speed Wind Dir Waves Ship Positions

Sydnee Taylor

Owner: Florida Marine, LLC, Mandeville, LA. More information available from US FCC via Universal Licensing System and Coast Guard Vessel Documentation Center.

Last reported at 2018-Feb-20 15:08 UTC. Time now 2018-Feb-23 14:34 UTC.
Position N 29°33' W 090°26'.

Length 27 m; draft 2.6 m.

Type: Towing. MMSI: 367149340.

Date/timePositionNaut miles runAvg speedWind from/ knotsBaromVisibWave heightAir tempDewpointWater temp
2018-Feb-20 15:08N 29°33' W 090°26'2 4.7
2018-Feb-20 14:45N 29°33' W 090°28'1 4.8
2018-Feb-20 14:29N 29°34' W 090°30'2 4.6
2018-Feb-20 14:00N 29°34' W 090°32'2 4.3
2018-Feb-20 13:30N 29°34' W 090°35'2 3.9
2018-Feb-20 13:01N 29°35' W 090°37'2 4.5
2018-Feb-20 12:30N 29°36' W 090°39'2 4.0
2018-Feb-20 12:00N 29°36' W 090°41'1 2.5
2018-Feb-20 11:30N 29°36' W 090°43'2 4.0
2018-Feb-20 11:01N 29°34' W 090°43'2 4.2
2018-Feb-20 10:30N 29°33' W 090°45'0 0.3
2018-Feb-20 10:01N 29°33' W 090°45'0 0.0
2018-Feb-20 09:29N 29°33' W 090°45'0 0.0
2018-Feb-20 09:00N 29°33' W 090°45'0 0.3
2018-Feb-20 08:31N 29°33' W 090°45'2 3.8
2018-Feb-20 08:00N 29°32' W 090°47'3 5.8
2018-Feb-20 07:30N 29°32' W 090°51'3 5.5
2018-Feb-20 07:00N 29°33' W 090°54'3 5.2
2018-Feb-20 06:29N 29°34' W 090°57'3 0.1
2018-Feb-18 23:35N 29°37' W 090°59'1 6.0
2018-Feb-18 23:21N 29°36' W 090°58'2 5.9
2018-Feb-18 22:59N 29°34' W 090°56'3 6.2
2018-Feb-18 22:30N 29°33' W 090°53'3 5.9
2018-Feb-18 22:00N 29°32' W 090°50'3 5.8
2018-Feb-18 21:31N 29°32' W 090°47'2 4.8
2018-Feb-18 21:01N 29°34' W 090°45'2 4.0
2018-Feb-18 20:31N 29°35' W 090°43'2 4.0
2018-Feb-18 20:00N 29°37' W 090°42'1 2.5
2018-Feb-18 19:31N 29°36' W 090°40'3 5.2
2018-Feb-18 19:01N 29°35' W 090°38'3 5.6
2018-Feb-18 18:31N 29°34' W 090°35'3 5.8
2018-Feb-18 18:00N 29°34' W 090°31'  
2018-Feb-12 09:31N 29°33' W 090°25'0 5.4
2018-Feb-12 09:30N 29°33' W 090°25'3 5.1
2018-Feb-12 08:59N 29°33' W 090°28'2 5.1
2018-Feb-12 08:30N 29°34' W 090°31'2 4.9
2018-Feb-12 08:00N 29°34' W 090°33'2 4.0
2018-Feb-12 07:30N 29°35' W 090°36'2 4.5
2018-Feb-12 07:01N 29°35' W 090°38'2 4.8
2018-Feb-12 06:31N 29°36' W 090°41'2 3.5
2018-Feb-12 06:00N 29°36' W 090°43'2 4.3
2018-Feb-12 05:30N 29°34' W 090°43'2 4.7
2018-Feb-12 05:00N 29°33' W 090°45'2 4.9
2018-Feb-12 04:30N 29°32' W 090°48'3 5.7
2018-Feb-12 04:00N 29°32' W 090°51'3 5.6
2018-Feb-12 03:29N 29°33' W 090°54'3 5.3
2018-Feb-12 03:00N 29°34' W 090°57'56 2.1
2018-Feb-11 01:05N 29°50' W 091°58'0 4.9
2018-Feb-11 01:00N 29°50' W 091°59'3 5.1
2018-Feb-11 00:30N 29°49' W 092°01'3 5.2
2018-Feb-10 23:55N 29°48' W 092°05'2 5.4
2018-Feb-10 23:30N 29°47' W 092°07'2 4.9
2018-Feb-10 23:00N 29°47' W 092°10'2 4.4
2018-Feb-10 22:30N 29°47' W 092°12'0 0.7
2018-Feb-10 22:00N 29°47' W 092°13'2 3.3
2018-Feb-10 21:30N 29°48' W 092°14'2 4.6
2018-Feb-10 20:59N 29°49' W 092°17'2 4.4
2018-Feb-10 20:30N 29°50' W 092°19'2 4.6
2018-Feb-10 20:00N 29°51' W 092°21'  

Dump ship's entire track history